sensor_id;sensor_type;location;lat;lon;timestamp;pressure;altitude;pressure_sealevel;temperature;humidity
57791;BME280;43621;51.798;21.588;2023-01-10T00:00:12;98968.07;;;7.76;76.92
57791;BME280;43621;51.798;21.588;2023-01-10T00:04:34;98963.98;;;7.74;76.81
57791;BME280;43621;51.798;21.588;2023-01-10T00:08:36;98957.45;;;7.69;76.81
57791;BME280;43621;51.798;21.588;2023-01-10T00:12:38;98958.36;;;7.63;76.68
57791;BME280;43621;51.798;21.588;2023-01-10T00:16:58;98972.45;;;7.60;76.56
57791;BME280;43621;51.798;21.588;2023-01-10T00:21:00;98977.30;;;7.60;76.50
57791;BME280;43621;51.798;21.588;2023-01-10T00:25:03;98979.45;;;7.59;76.44
57791;BME280;43621;51.798;21.588;2023-01-10T00:29:05;98979.73;;;7.60;76.50
57791;BME280;43621;51.798;21.588;2023-01-10T00:33:08;98987.27;;;7.63;76.60
57791;BME280;43621;51.798;21.588;2023-01-10T00:37:17;98992.30;;;7.64;76.66
57791;BME280;43621;51.798;21.588;2023-01-10T00:41:19;98996.22;;;7.62;76.44
57791;BME280;43621;51.798;21.588;2023-01-10T00:45:40;99004.64;;;7.61;76.42
57791;BME280;43621;51.798;21.588;2023-01-10T00:49:42;99004.41;;;7.60;76.37
57791;BME280;43621;51.798;21.588;2023-01-10T00:53:43;99007.36;;;7.54;76.28
57791;BME280;43621;51.798;21.588;2023-01-10T00:57:45;99013.16;;;7.46;76.38
57791;BME280;43621;51.798;21.588;2023-01-10T01:01:48;99016.70;;;7.44;76.39
57791;BME280;43621;51.798;21.588;2023-01-10T01:05:50;99017.27;;;7.45;76.45
57791;BME280;43621;51.798;21.588;2023-01-10T01:09:52;99012.46;;;7.46;76.32
57791;BME280;43621;51.798;21.588;2023-01-10T01:14:13;99003.61;;;7.46;76.49
57791;BME280;43621;51.798;21.588;2023-01-10T01:18:18;99007.40;;;7.47;76.32
57791;BME280;43621;51.798;21.588;2023-01-10T01:22:21;99013.82;;;7.45;76.18
57791;BME280;43621;51.798;21.588;2023-01-10T01:26:23;99016.39;;;7.45;76.22
57791;BME280;43621;51.798;21.588;2023-01-10T01:30:25;99018.45;;;7.45;76.31
57791;BME280;43621;51.798;21.588;2023-01-10T01:34:27;99021.52;;;7.46;76.38
57791;BME280;43621;51.798;21.588;2023-01-10T01:38:29;99028.23;;;7.45;76.46
57791;BME280;43621;51.798;21.588;2023-01-10T01:42:33;99036.63;;;7.44;76.76
57791;BME280;43621;51.798;21.588;2023-01-10T01:46:37;99039.27;;;7.44;76.93
57791;BME280;43621;51.798;21.588;2023-01-10T01:54:53;99053.63;;;7.48;76.75
57791;BME280;43621;51.798;21.588;2023-01-10T01:59:06;99059.93;;;7.51;76.76
57791;BME280;43621;51.798;21.588;2023-01-10T02:03:10;99064.02;;;7.48;76.44
57791;BME280;43621;51.798;21.588;2023-01-10T02:07:13;99068.25;;;7.44;76.22
57791;BME280;43621;51.798;21.588;2023-01-10T02:11:15;99071.63;;;7.41;76.37
57791;BME280;43621;51.798;21.588;2023-01-10T02:15:17;99071.38;;;7.42;76.33
57791;BME280;43621;51.798;21.588;2023-01-10T02:32:11;99071.86;;;7.38;76.56
57791;BME280;43621;51.798;21.588;2023-01-10T02:36:33;99075.48;;;7.35;76.65
57791;BME280;43621;51.798;21.588;2023-01-10T02:44:53;99081.23;;;7.27;76.61
57791;BME280;43621;51.798;21.588;2023-01-10T02:48:59;99078.52;;;7.26;76.46
57791;BME280;43621;51.798;21.588;2023-01-10T02:53:06;99082.55;;;7.26;76.49
57791;BME280;43621;51.798;21.588;2023-01-10T03:06:12;99083.77;;;7.21;76.47
57791;BME280;43621;51.798;21.588;2023-01-10T03:10:29;99088.90;;;7.20;76.46
57791;BME280;43621;51.798;21.588;2023-01-10T03:14:32;99093.45;;;7.19;76.48
57791;BME280;43621;51.798;21.588;2023-01-10T03:18:50;99096.69;;;7.16;76.45
57791;BME280;43621;51.798;21.588;2023-01-10T03:22:54;99097.55;;;7.12;76.40
57791;BME280;43621;51.798;21.588;2023-01-10T03:31:06;99109.25;;;7.12;76.69
57791;BME280;43621;51.798;21.588;2023-01-10T03:35:11;99107.20;;;7.11;76.69
57791;BME280;43621;51.798;21.588;2023-01-10T03:48:38;99115.84;;;7.21;76.72
57791;BME280;43621;51.798;21.588;2023-01-10T03:52:42;99116.98;;;7.20;76.60
57791;BME280;43621;51.798;21.588;2023-01-10T03:56:46;99119.29;;;7.21;76.59
57791;BME280;43621;51.798;21.588;2023-01-10T04:00:50;99119.81;;;7.21;76.56
57791;BME280;43621;51.798;21.588;2023-01-10T04:04:52;99121.77;;;7.17;76.61
57791;BME280;43621;51.798;21.588;2023-01-10T04:08:54;99122.52;;;7.13;76.66
57791;BME280;43621;51.798;21.588;2023-01-10T04:12:59;99125.36;;;7.06;76.43
57791;BME280;43621;51.798;21.588;2023-01-10T04:17:03;99131.02;;;7.03;76.64
57791;BME280;43621;51.798;21.588;2023-01-10T04:21:05;99137.54;;;7.06;76.60
57791;BME280;43621;51.798;21.588;2023-01-10T04:25:07;99141.34;;;7.06;76.49
57791;BME280;43621;51.798;21.588;2023-01-10T04:29:12;99152.73;;;7.06;76.59
57791;BME280;43621;51.798;21.588;2023-01-10T04:33:13;99154.58;;;7.07;76.60
57791;BME280;43621;51.798;21.588;2023-01-10T04:37:15;99162.55;;;7.10;76.66
57791;BME280;43621;51.798;21.588;2023-01-10T04:41:17;99169.17;;;7.11;76.62
57791;BME280;43621;51.798;21.588;2023-01-10T04:45:19;99181.15;;;7.17;76.59
57791;BME280;43621;51.798;21.588;2023-01-10T04:49:22;99191.90;;;7.21;76.66
57791;BME280;43621;51.798;21.588;2023-01-10T04:53:24;99196.64;;;7.20;76.75
57791;BME280;43621;51.798;21.588;2023-01-10T04:57:25;99209.90;;;7.13;76.70
57791;BME280;43621;51.798;21.588;2023-01-10T05:01:27;99216.58;;;7.07;76.63
57791;BME280;43621;51.798;21.588;2023-01-10T05:05:30;99224.04;;;7.03;76.60
57791;BME280;43621;51.798;21.588;2023-01-10T05:09:32;99236.97;;;7.04;76.68
57791;BME280;43621;51.798;21.588;2023-01-10T05:13:34;99248.20;;;7.06;76.61
57791;BME280;43621;51.798;21.588;2023-01-10T05:17:36;99252.70;;;7.12;76.76
57791;BME280;43621;51.798;21.588;2023-01-10T05:21:37;99258.52;;;7.19;76.94
57791;BME280;43621;51.798;21.588;2023-01-10T05:25:39;99262.12;;;7.24;76.76
57791;BME280;43621;51.798;21.588;2023-01-10T05:29:41;99267.05;;;7.27;76.58
57791;BME280;43621;51.798;21.588;2023-01-10T05:33:48;99272.13;;;7.30;76.67
57791;BME280;43621;51.798;21.588;2023-01-10T05:37:50;99275.88;;;7.34;76.71
57791;BME280;43621;51.798;21.588;2023-01-10T05:41:53;99282.79;;;7.37;76.66
57791;BME280;43621;51.798;21.588;2023-01-10T05:45:54;99287.98;;;7.35;76.68
57791;BME280;43621;51.798;21.588;2023-01-10T05:49:56;99288.98;;;7.28;76.52
57791;BME280;43621;51.798;21.588;2023-01-10T05:53:58;99297.11;;;7.22;76.53
57791;BME280;43621;51.798;21.588;2023-01-10T05:58:00;99307.58;;;7.20;76.54
57791;BME280;43621;51.798;21.588;2023-01-10T06:02:02;99318.65;;;7.18;76.40
57791;BME280;43621;51.798;21.588;2023-01-10T06:06:03;99324.56;;;7.16;76.34
57791;BME280;43621;51.798;21.588;2023-01-10T06:10:06;99333.34;;;7.17;76.47
57791;BME280;43621;51.798;21.588;2023-01-10T06:14:08;99339.79;;;7.21;76.48
57791;BME280;43621;51.798;21.588;2023-01-10T06:18:09;99341.46;;;7.21;76.44
57791;BME280;43621;51.798;21.588;2023-01-10T06:22:11;99345.80;;;7.22;76.32
57791;BME280;43621;51.798;21.588;2023-01-10T06:26:13;99348.53;;;7.22;76.41
57791;BME280;43621;51.798;21.588;2023-01-10T06:30:15;99353.21;;;7.20;76.26
57791;BME280;43621;51.798;21.588;2023-01-10T06:34:17;99359.08;;;7.20;76.36
57791;BME280;43621;51.798;21.588;2023-01-10T06:38:19;99358.09;;;7.20;76.35
57791;BME280;43621;51.798;21.588;2023-01-10T06:42:20;99360.27;;;7.18;76.41
57791;BME280;43621;51.798;21.588;2023-01-10T06:46:22;99359.15;;;7.14;76.48
57791;BME280;43621;51.798;21.588;2023-01-10T06:50:24;99364.08;;;7.09;76.40
57791;BME280;43621;51.798;21.588;2023-01-10T06:54:26;99368.58;;;7.05;76.31
57791;BME280;43621;51.798;21.588;2023-01-10T06:58:28;99370.05;;;7.04;76.31
57791;BME280;43621;51.798;21.588;2023-01-10T07:02:30;99379.10;;;7.04;76.39
57791;BME280;43621;51.798;21.588;2023-01-10T07:06:35;99388.31;;;7.08;76.57
57791;BME280;43621;51.798;21.588;2023-01-10T07:10:42;99392.57;;;7.11;76.44
57791;BME280;43621;51.798;21.588;2023-01-10T07:14:44;99395.21;;;7.14;76.44
57791;BME280;43621;51.798;21.588;2023-01-10T07:18:46;99398.48;;;7.18;76.43
57791;BME280;43621;51.798;21.588;2023-01-10T07:22:55;99402.64;;;7.24;76.58
57791;BME280;43621;51.798;21.588;2023-01-10T07:26:57;99408.60;;;7.30;76.42
57791;BME280;43621;51.798;21.588;2023-01-10T07:31:00;99414.11;;;7.28;76.19
57791;BME280;43621;51.798;21.588;2023-01-10T07:35:02;99424.08;;;7.25;76.36
57791;BME280;43621;51.798;21.588;2023-01-10T07:39:04;99422.54;;;7.23;76.45
57791;BME280;43621;51.798;21.588;2023-01-10T07:43:06;99430.45;;;7.20;76.41
57791;BME280;43621;51.798;21.588;2023-01-10T07:47:08;99438.77;;;7.20;76.41
57791;BME280;43621;51.798;21.588;2023-01-10T07:51:10;99444.23;;;7.21;76.35
57791;BME280;43621;51.798;21.588;2023-01-10T07:55:12;99450.45;;;7.24;76.45
57791;BME280;43621;51.798;21.588;2023-01-10T07:59:14;99452.27;;;7.28;76.58
57791;BME280;43621;51.798;21.588;2023-01-10T08:03:16;99452.16;;;7.30;76.39
57791;BME280;43621;51.798;21.588;2023-01-10T08:07:18;99455.67;;;7.31;76.31
57791;BME280;43621;51.798;21.588;2023-01-10T08:11:20;99460.16;;;7.36;76.38
57791;BME280;43621;51.798;21.588;2023-01-10T08:15:22;99467.36;;;7.39;76.25
57791;BME280;43621;51.798;21.588;2023-01-10T08:19:24;99468.42;;;7.38;76.30
57791;BME280;43621;51.798;21.588;2023-01-10T08:23:26;99477.02;;;7.34;76.16
57791;BME280;43621;51.798;21.588;2023-01-10T08:27:28;99480.85;;;7.25;76.13
57791;BME280;43621;51.798;21.588;2023-01-10T08:31:29;99488.13;;;7.17;76.20
57791;BME280;43621;51.798;21.588;2023-01-10T08:35:42;99494.15;;;7.20;76.46
57791;BME280;43621;51.798;21.588;2023-01-10T08:39:44;99496.89;;;7.26;76.51
57791;BME280;43621;51.798;21.588;2023-01-10T08:43:48;99498.55;;;7.31;76.43
57791;BME280;43621;51.798;21.588;2023-01-10T08:47:52;99505.08;;;7.36;76.35
57791;BME280;43621;51.798;21.588;2023-01-10T08:51:53;99507.55;;;7.40;76.26
57791;BME280;43621;51.798;21.588;2023-01-10T08:55:55;99515.31;;;7.41;76.12
57791;BME280;43621;51.798;21.588;2023-01-10T08:59:57;99523.08;;;7.44;76.14
57791;BME280;43621;51.798;21.588;2023-01-10T09:03:59;99525.06;;;7.45;76.14
57791;BME280;43621;51.798;21.588;2023-01-10T09:08:02;99531.50;;;7.44;76.08
57791;BME280;43621;51.798;21.588;2023-01-10T09:12:04;99534.00;;;7.46;76.12
57791;BME280;43621;51.798;21.588;2023-01-10T09:16:26;99536.20;;;7.46;75.98
57791;BME280;43621;51.798;21.588;2023-01-10T09:20:28;99546.04;;;7.45;75.97
57791;BME280;43621;51.798;21.588;2023-01-10T09:24:30;99550.82;;;7.42;75.92
57791;BME280;43621;51.798;21.588;2023-01-10T09:28:32;99551.11;;;7.38;75.97
57791;BME280;43621;51.798;21.588;2023-01-10T09:32:34;99549.27;;;7.31;76.04
57791;BME280;43621;51.798;21.588;2023-01-10T09:36:36;99542.49;;;7.25;75.93
57791;BME280;43621;51.798;21.588;2023-01-10T09:45:05;99528.19;;;7.26;76.05
57791;BME280;43621;51.798;21.588;2023-01-10T09:49:56;99531.04;;;7.25;76.07
57791;BME280;43621;51.798;21.588;2023-01-10T09:54:05;99535.09;;;7.24;76.01
57791;BME280;43621;51.798;21.588;2023-01-10T09:58:16;99535.98;;;7.28;76.21
57791;BME280;43621;51.798;21.588;2023-01-10T10:02:27;99531.81;;;7.32;76.16
57791;BME280;43621;51.798;21.588;2023-01-10T10:06:31;99531.29;;;7.32;76.17
57791;BME280;43621;51.798;21.588;2023-01-10T10:10:40;99542.15;;;7.33;76.12
57791;BME280;43621;51.798;21.588;2023-01-10T10:36:11;99551.70;;;7.64;75.98
57791;BME280;43621;51.798;21.588;2023-01-10T10:40:18;99553.25;;;7.68;76.13
57791;BME280;43621;51.798;21.588;2023-01-10T10:44:30;99556.90;;;7.66;76.03
57791;BME280;43621;51.798;21.588;2023-01-10T10:48:48;99559.56;;;7.61;75.80
57791;BME280;43621;51.798;21.588;2023-01-10T10:52:53;99560.71;;;7.58;75.79
57791;BME280;43621;51.798;21.588;2023-01-10T10:56:55;99558.85;;;7.61;76.10
57791;BME280;43621;51.798;21.588;2023-01-10T11:00:59;99560.98;;;7.67;76.03
57791;BME280;43621;51.798;21.588;2023-01-10T11:05:03;99566.92;;;7.66;75.91
57791;BME280;43621;51.798;21.588;2023-01-10T11:09:07;99569.96;;;7.61;75.72
57791;BME280;43621;51.798;21.588;2023-01-10T11:17:36;99577.05;;;7.60;75.76
57791;BME280;43621;51.798;21.588;2023-01-10T11:21:48;99582.59;;;7.64;75.88
57791;BME280;43621;51.798;21.588;2023-01-10T11:25:51;99590.28;;;7.67;75.99
57791;BME280;43621;51.798;21.588;2023-01-10T11:30:01;99594.68;;;7.71;75.87
57791;BME280;43621;51.798;21.588;2023-01-10T11:34:07;99597.70;;;7.72;75.90
57791;BME280;43621;51.798;21.588;2023-01-10T11:38:19;99601.86;;;7.68;75.80
57791;BME280;43621;51.798;21.588;2023-01-10T11:46:30;99608.43;;;7.59;75.72
57791;BME280;43621;51.798;21.588;2023-01-10T11:50:38;99613.63;;;7.57;75.71
57791;BME280;43621;51.798;21.588;2023-01-10T11:54:42;99621.02;;;7.52;75.64
57791;BME280;43621;51.798;21.588;2023-01-10T11:58:44;99625.20;;;7.47;75.72
57791;BME280;43621;51.798;21.588;2023-01-10T12:02:46;99625.27;;;7.47;75.85
57791;BME280;43621;51.798;21.588;2023-01-10T12:06:50;99632.65;;;7.45;75.75
57791;BME280;43621;51.798;21.588;2023-01-10T12:11:07;99635.30;;;7.49;75.87
57791;BME280;43621;51.798;21.588;2023-01-10T12:15:29;99645.77;;;7.51;75.75
57791;BME280;43621;51.798;21.588;2023-01-10T12:19:31;99653.95;;;7.46;75.68
57791;BME280;43621;51.798;21.588;2023-01-10T12:23:34;99658.36;;;7.41;75.65
57791;BME280;43621;51.798;21.588;2023-01-10T12:27:42;99662.17;;;7.33;75.77
57791;BME280;43621;51.798;21.588;2023-01-10T12:31:45;99665.17;;;7.26;75.86
57791;BME280;43621;51.798;21.588;2023-01-10T12:40:29;99678.09;;;7.27;75.90
57791;BME280;43621;51.798;21.588;2023-01-10T12:44:43;99689.73;;;7.27;75.86
57791;BME280;43621;51.798;21.588;2023-01-10T12:48:53;99694.89;;;7.23;75.63
57791;BME280;43621;51.798;21.588;2023-01-10T12:53:09;99702.96;;;7.20;75.68
57791;BME280;43621;51.798;21.588;2023-01-10T12:57:35;99708.77;;;7.21;75.85
57791;BME280;43621;51.798;21.588;2023-01-10T13:01:38;99711.13;;;7.20;75.92
57791;BME280;43621;51.798;21.588;2023-01-10T13:05:44;99713.95;;;7.17;75.91
57791;BME280;43621;51.798;21.588;2023-01-10T13:09:50;99730.65;;;7.21;76.02
57791;BME280;43621;51.798;21.588;2023-01-10T13:13:55;99741.41;;;7.24;76.14
57791;BME280;43621;51.798;21.588;2023-01-10T13:18:04;99743.28;;;7.28;76.15
57791;BME280;43621;51.798;21.588;2023-01-10T13:22:22;99755.24;;;7.26;75.98
57791;BME280;43621;51.798;21.588;2023-01-10T13:26:24;99762.36;;;7.18;76.08
57791;BME280;43621;51.798;21.588;2023-01-10T13:30:31;99765.64;;;7.07;75.92
57791;BME280;43621;51.798;21.588;2023-01-10T13:34:34;99771.71;;;7.01;76.11
57791;BME280;43621;51.798;21.588;2023-01-10T13:42:45;99790.03;;;7.00;76.29
57791;BME280;43621;51.798;21.588;2023-01-10T13:47:08;99793.63;;;7.00;76.29
57791;BME280;43621;51.798;21.588;2023-01-10T13:51:18;99797.55;;;7.01;76.33
57791;BME280;43621;51.798;21.588;2023-01-10T14:00:00;99806.45;;;7.05;76.37
57791;BME280;43621;51.798;21.588;2023-01-10T14:08:29;99813.77;;;7.02;76.21
57791;BME280;43621;51.798;21.588;2023-01-10T14:12:56;99817.63;;;7.02;76.26
57791;BME280;43621;51.798;21.588;2023-01-10T14:17:08;99817.89;;;7.01;76.29
57791;BME280;43621;51.798;21.588;2023-01-10T14:21:23;99810.88;;;6.95;76.06
57791;BME280;43621;51.798;21.588;2023-01-10T14:25:26;99811.70;;;6.91;76.27
57791;BME280;43621;51.798;21.588;2023-01-10T14:29:31;99816.41;;;6.91;76.36
57791;BME280;43621;51.798;21.588;2023-01-10T14:33:34;99813.95;;;6.92;76.48
57791;BME280;43621;51.798;21.588;2023-01-10T14:37:43;99815.00;;;6.85;76.29
57791;BME280;43621;51.798;21.588;2023-01-10T14:41:52;99814.48;;;6.81;76.40
57791;BME280;43621;51.798;21.588;2023-01-10T14:46:00;99820.44;;;6.78;76.45
57791;BME280;43621;51.798;21.588;2023-01-10T14:50:04;99827.23;;;6.73;76.44
57791;BME280;43621;51.798;21.588;2023-01-10T14:54:13;99837.73;;;6.71;76.52
57791;BME280;43621;51.798;21.588;2023-01-10T14:58:16;99844.77;;;6.70;76.56
57791;BME280;43621;51.798;21.588;2023-01-10T15:02:21;99850.52;;;6.72;76.66
57791;BME280;43621;51.798;21.588;2023-01-10T15:06:25;99855.68;;;6.72;76.74
57791;BME280;43621;51.798;21.588;2023-01-10T15:10:39;99856.79;;;6.74;76.70
57791;BME280;43621;51.798;21.588;2023-01-10T15:14:42;99861.81;;;6.74;76.60
57791;BME280;43621;51.798;21.588;2023-01-10T15:18:44;99865.80;;;6.74;76.55
57791;BME280;43621;51.798;21.588;2023-01-10T15:22:59;99869.92;;;6.75;76.70
57791;BME280;43621;51.798;21.588;2023-01-10T15:27:04;99873.73;;;6.77;76.78
57791;BME280;43621;51.798;21.588;2023-01-10T15:31:08;99882.96;;;6.79;76.78
57791;BME280;43621;51.798;21.588;2023-01-10T15:35:12;99893.55;;;6.81;76.76
57791;BME280;43621;51.798;21.588;2023-01-10T15:39:22;99894.88;;;6.82;76.87
57791;BME280;43621;51.798;21.588;2023-01-10T15:43:26;99895.14;;;6.81;76.83
57791;BME280;43621;51.798;21.588;2023-01-10T15:51:40;99905.66;;;6.72;76.80
57791;BME280;43621;51.798;21.588;2023-01-10T15:55:43;99900.86;;;6.69;76.77
57791;BME280;43621;51.798;21.588;2023-01-10T15:59:48;99896.11;;;6.68;76.77
57791;BME280;43621;51.798;21.588;2023-01-10T16:03:55;99892.53;;;6.67;76.83
57791;BME280;43621;51.798;21.588;2023-01-10T16:07:57;99896.09;;;6.68;76.95
57791;BME280;43621;51.798;21.588;2023-01-10T16:11:59;99898.02;;;6.70;76.92
57791;BME280;43621;51.798;21.588;2023-01-10T16:16:20;99893.94;;;6.73;77.00
57791;BME280;43621;51.798;21.588;2023-01-10T16:24:34;99909.45;;;6.75;76.94
57791;BME280;43621;51.798;21.588;2023-01-10T16:28:36;99911.70;;;6.75;76.92
57791;BME280;43621;51.798;21.588;2023-01-10T16:32:39;99917.88;;;6.76;76.83
57791;BME280;43621;51.798;21.588;2023-01-10T16:36:43;99920.30;;;6.73;76.85
57791;BME280;43621;51.798;21.588;2023-01-10T16:40:51;99917.92;;;6.73;76.92
57791;BME280;43621;51.798;21.588;2023-01-10T16:44:55;99921.80;;;6.72;76.93
57791;BME280;43621;51.798;21.588;2023-01-10T16:48:57;99925.91;;;6.71;76.91
57791;BME280;43621;51.798;21.588;2023-01-10T16:52:59;99932.70;;;6.70;76.99
57791;BME280;43621;51.798;21.588;2023-01-10T16:57:01;99939.36;;;6.72;77.12
57791;BME280;43621;51.798;21.588;2023-01-10T17:01:03;99942.02;;;6.73;77.09
57791;BME280;43621;51.798;21.588;2023-01-10T17:05:05;99940.52;;;6.72;76.92
57791;BME280;43621;51.798;21.588;2023-01-10T17:09:20;99945.43;;;6.69;76.92
57791;BME280;43621;51.798;21.588;2023-01-10T17:13:28;99958.46;;;6.69;77.19
57791;BME280;43621;51.798;21.588;2023-01-10T17:17:31;99966.83;;;6.64;77.19
57791;BME280;43621;51.798;21.588;2023-01-10T17:21:33;99978.69;;;6.61;77.19
57791;BME280;43621;51.798;21.588;2023-01-10T17:25:34;99981.57;;;6.57;77.05
57791;BME280;43621;51.798;21.588;2023-01-10T17:29:38;99987.39;;;6.56;77.12
57791;BME280;43621;51.798;21.588;2023-01-10T17:33:40;99993.04;;;6.57;77.11
57791;BME280;43621;51.798;21.588;2023-01-10T17:37:42;99994.24;;;6.57;77.12
57791;BME280;43621;51.798;21.588;2023-01-10T17:41:44;100001.37;;;6.57;77.06
57791;BME280;43621;51.798;21.588;2023-01-10T17:45:48;100003.20;;;6.56;76.99
57791;BME280;43621;51.798;21.588;2023-01-10T17:49:50;100010.67;;;6.53;77.06
57791;BME280;43621;51.798;21.588;2023-01-10T17:53:53;100014.98;;;6.56;77.22
57791;BME280;43621;51.798;21.588;2023-01-10T17:57:55;100018.05;;;6.61;77.29
57791;BME280;43621;51.798;21.588;2023-01-10T18:01:58;100022.39;;;6.65;77.30
57791;BME280;43621;51.798;21.588;2023-01-10T18:05:59;100031.02;;;6.71;77.17
57791;BME280;43621;51.798;21.588;2023-01-10T18:10:02;100033.61;;;6.73;77.05
57791;BME280;43621;51.798;21.588;2023-01-10T18:14:04;100043.36;;;6.73;76.95
57791;BME280;43621;51.798;21.588;2023-01-10T18:18:26;100051.32;;;6.68;76.98
57791;BME280;43621;51.798;21.588;2023-01-10T18:22:29;100050.56;;;6.55;76.91
57791;BME280;43621;51.798;21.588;2023-01-10T18:26:49;100058.23;;;6.55;77.17
57791;BME280;43621;51.798;21.588;2023-01-10T18:30:51;100064.92;;;6.54;77.14
57791;BME280;43621;51.798;21.588;2023-01-10T18:34:53;100063.77;;;6.50;77.03
57791;BME280;43621;51.798;21.588;2023-01-10T18:38:56;100072.66;;;6.49;77.08
57791;BME280;43621;51.798;21.588;2023-01-10T18:42:58;100074.05;;;6.49;76.96
57791;BME280;43621;51.798;21.588;2023-01-10T18:47:00;100072.81;;;6.50;76.90
57791;BME280;43621;51.798;21.588;2023-01-10T18:51:03;100077.11;;;6.48;76.76
57791;BME280;43621;51.798;21.588;2023-01-10T18:55:07;100091.05;;;6.42;76.73
57791;BME280;43621;51.798;21.588;2023-01-10T18:59:09;100093.90;;;6.38;76.86
57791;BME280;43621;51.798;21.588;2023-01-10T19:03:11;100096.76;;;6.37;76.76
57791;BME280;43621;51.798;21.588;2023-01-10T19:07:13;100100.08;;;6.37;76.98
57791;BME280;43621;51.798;21.588;2023-01-10T19:11:15;100102.80;;;6.40;76.97
57791;BME280;43621;51.798;21.588;2023-01-10T19:15:17;100104.38;;;6.42;76.98
57791;BME280;43621;51.798;21.588;2023-01-10T19:19:19;100101.02;;;6.43;76.91
57791;BME280;43621;51.798;21.588;2023-01-10T19:23:21;100100.55;;;6.45;77.00
57791;BME280;43621;51.798;21.588;2023-01-10T19:27:23;100104.21;;;6.42;76.99
57791;BME280;43621;51.798;21.588;2023-01-10T19:31:27;100112.58;;;6.37;76.91
57791;BME280;43621;51.798;21.588;2023-01-10T19:35:29;100114.80;;;6.30;76.86
57791;BME280;43621;51.798;21.588;2023-01-10T19:39:36;100112.21;;;6.23;76.73
57791;BME280;43621;51.798;21.588;2023-01-10T19:43:39;100116.42;;;6.20;76.64
57791;BME280;43621;51.798;21.588;2023-01-10T19:47:40;100121.27;;;6.20;76.65
57791;BME280;43621;51.798;21.588;2023-01-10T19:51:45;100124.79;;;6.19;76.70
57791;BME280;43621;51.798;21.588;2023-01-10T19:55:58;100128.24;;;6.19;76.64
57791;BME280;43621;51.798;21.588;2023-01-10T20:00:04;100131.96;;;6.21;76.70
57791;BME280;43621;51.798;21.588;2023-01-10T20:04:29;100139.16;;;6.15;76.42
57791;BME280;43621;51.798;21.588;2023-01-10T20:08:31;100143.74;;;6.08;76.50
57791;BME280;43621;51.798;21.588;2023-01-10T20:12:34;100151.80;;;6.04;76.64
57791;BME280;43621;51.798;21.588;2023-01-10T20:16:36;100155.40;;;6.03;76.61
57791;BME280;43621;51.798;21.588;2023-01-10T20:20:38;100156.40;;;6.03;76.67
57791;BME280;43621;51.798;21.588;2023-01-10T20:24:40;100151.73;;;6.01;76.64
57791;BME280;43621;51.798;21.588;2023-01-10T20:28:42;100155.51;;;5.94;76.60
57791;BME280;43621;51.798;21.588;2023-01-10T20:32:44;100155.91;;;5.83;76.68
57791;BME280;43621;51.798;21.588;2023-01-10T20:36:46;100166.00;;;5.87;76.67
57791;BME280;43621;51.798;21.588;2023-01-10T20:40:55;100171.86;;;5.87;76.66
57791;BME280;43621;51.798;21.588;2023-01-10T20:44:58;100173.90;;;5.91;76.78
57791;BME280;43621;51.798;21.588;2023-01-10T20:49:00;100174.82;;;5.92;76.46
57791;BME280;43621;51.798;21.588;2023-01-10T20:53:02;100172.60;;;5.89;76.35
57791;BME280;43621;51.798;21.588;2023-01-10T20:57:04;100173.02;;;5.88;76.48
57791;BME280;43621;51.798;21.588;2023-01-10T21:01:07;100169.10;;;5.82;76.23
57791;BME280;43621;51.798;21.588;2023-01-10T21:05:09;100173.30;;;5.76;76.38
57791;BME280;43621;51.798;21.588;2023-01-10T21:09:11;100173.39;;;5.73;76.46
57791;BME280;43621;51.798;21.588;2023-01-10T21:13:15;100169.79;;;5.67;76.43
57791;BME280;43621;51.798;21.588;2023-01-10T21:17:17;100176.08;;;5.66;76.81
57791;BME280;43621;51.798;21.588;2023-01-10T21:21:20;100185.17;;;5.73;76.77
57791;BME280;43621;51.798;21.588;2023-01-10T21:25:25;100189.40;;;5.74;76.50
57791;BME280;43621;51.798;21.588;2023-01-10T21:29:27;100189.73;;;5.79;76.65
57791;BME280;43621;51.798;21.588;2023-01-10T21:33:29;100188.52;;;5.87;76.69
57791;BME280;43621;51.798;21.588;2023-01-10T21:37:31;100190.16;;;5.91;76.63
57791;BME280;43621;51.798;21.588;2023-01-10T21:41:32;100197.11;;;5.96;76.51
57791;BME280;43621;51.798;21.588;2023-01-10T21:45:59;100200.39;;;5.96;76.46
57791;BME280;43621;51.798;21.588;2023-01-10T21:50:03;100207.27;;;5.94;76.40
57791;BME280;43621;51.798;21.588;2023-01-10T21:54:05;100214.13;;;5.87;76.38
57791;BME280;43621;51.798;21.588;2023-01-10T21:58:06;100215.33;;;5.80;76.35
57791;BME280;43621;51.798;21.588;2023-01-10T22:02:11;100223.05;;;5.79;76.49
57791;BME280;43621;51.798;21.588;2023-01-10T22:06:15;100228.19;;;5.77;76.16
57791;BME280;43621;51.798;21.588;2023-01-10T22:10:17;100225.61;;;5.74;75.89
57791;BME280;43621;51.798;21.588;2023-01-10T22:14:19;100223.10;;;5.73;75.92
57791;BME280;43621;51.798;21.588;2023-01-10T22:18:21;100228.20;;;5.74;75.99
57791;BME280;43621;51.798;21.588;2023-01-10T22:22:23;100226.45;;;5.77;76.09
57791;BME280;43621;51.798;21.588;2023-01-10T22:26:25;100222.56;;;5.78;75.93
57791;BME280;43621;51.798;21.588;2023-01-10T22:30:28;100224.58;;;5.71;75.85
57791;BME280;43621;51.798;21.588;2023-01-10T22:34:29;100228.14;;;5.57;75.63
57791;BME280;43621;51.798;21.588;2023-01-10T22:38:31;100235.44;;;5.43;75.80
57791;BME280;43621;51.798;21.588;2023-01-10T22:42:34;100236.54;;;5.32;75.76
57791;BME280;43621;51.798;21.588;2023-01-10T22:46:36;100240.55;;;5.27;75.86
57791;BME280;43621;51.798;21.588;2023-01-10T22:50:38;100244.63;;;5.25;75.88
57791;BME280;43621;51.798;21.588;2023-01-10T22:54:45;100248.73;;;5.23;75.82
57791;BME280;43621;51.798;21.588;2023-01-10T22:58:47;100257.67;;;5.21;75.78
57791;BME280;43621;51.798;21.588;2023-01-10T23:02:49;100258.02;;;5.22;75.76
57791;BME280;43621;51.798;21.588;2023-01-10T23:06:51;100252.23;;;5.23;75.77
57791;BME280;43621;51.798;21.588;2023-01-10T23:10:53;100247.95;;;5.22;75.85
57791;BME280;43621;51.798;21.588;2023-01-10T23:14:55;100247.12;;;5.21;75.60